Far Hills, NJ (07931)

5:36 AM EDT on July 31, 2016 (GMT -0400)
Roundtop | | Change Station

Elev 601 ft 40.72 °N, 74.58 °W | Updated 1 second ago

Light Rain
Light Rain Mist
71.4 °F
Feels Like 71.4 °F
N
0.0
Wind Variable Wind from ESE
Gusts 2.0 mph

Today
High -- | Low -- °F
--% Chance of Precip.
Yesterday
High -- | Low -- °F
Precip. -- in
Pressure 29.96 in
Visibility 4.0 miles
Clouds Overcast 7500 ft
Dew Point 71 °F
Humidity 100%
Rainfall 0.00 in
Snow Depth Not available.
5:54 AM 8:14 PM
Waning Crescent, 7% visible
METAR KSMQ 310853Z AUTO 00000KT 4SM -RA BR OVC075 23/22 A2996 RMK AO2 RAE06B48 SLP145 P0000 60001 T02330222 56005
Pressure 29.96 in
Visibility 4.0 miles
Clouds Overcast 7500 ft
Dew Point 71 °F
Humidity 100%
Rainfall 0.00 in
Snow Depth Not available.
5:54 AM 8:14 PM
Waning Crescent, 7% visible
METAR KSMQ 310853Z AUTO 00000KT 4SM -RA BR OVC075 23/22 A2996 RMK AO2 RAE06B48 SLP145 P0000 60001 T02330222 56005

10-Day Weather Forecast

Almanac

Astronomy

Jul. 31, 2016 Rise Set
Actual Time
Civil Twilight
Nautical Twilight
Astronomical Twilight
Moon
Length of Visible Light
Length of Day
Tomorrow will be .
, % of the Moon is Illuminated

Today's Extremes

State Highs State Lows

Community

WunderPhotos

Upload Photos

1,928,776 photos uploaded!

WunderBlog® & News

Nearby

Air Quality

  Air Quality AQ Index Pollutant
Not available.

Snow Depth

Station Depth Elevation

Earthquake Activity

City Distance Mag. Time & Date
Minimum magnitude displayed is 2.5.

Coastal Water Temperatures

Place Temperature

Stations

Nearby Weather Stations

Station Location Temp. Windchill Dew Point Humidity Wind Precip. Elev Updated Type
                   

Watches & Warnings

There are currently no watches in effect.